createdAt,value
2023-03-16T00:01:49.453Z,49.61
2023-03-16T00:04:17.115Z,50.88
2023-03-16T00:06:44.478Z,50.58
2023-03-16T00:09:11.822Z,50.12
2023-03-16T00:11:39.442Z,51.72
2023-03-16T00:14:06.819Z,51.39
2023-03-16T00:16:35.349Z,51.23
2023-03-16T00:19:06.068Z,51.25
2023-03-16T00:21:35.225Z,49.69
2023-03-16T00:24:04.144Z,50.71
2023-03-16T00:26:31.973Z,51.34
2023-03-16T00:28:59.500Z,51.66
2023-03-16T00:31:27.428Z,50.95
2023-03-16T00:33:54.787Z,51.12
2023-03-16T00:36:22.776Z,51.66
2023-03-16T00:38:50.454Z,51.24
2023-03-16T00:41:17.806Z,51.26
2023-03-16T00:43:46.778Z,51.53
2023-03-16T00:46:16.207Z,51.87
2023-03-16T00:48:45.143Z,51.21
2023-03-16T00:51:14.824Z,50.10
2023-03-16T00:53:43.285Z,50.31
2023-03-16T00:56:10.799Z,50.93
2023-03-16T00:58:39.066Z,52.14
2023-03-16T01:01:08.587Z,52.91
2023-03-16T01:03:36.188Z,51.80
2023-03-16T01:06:10.206Z,52.57
2023-03-16T01:08:38.706Z,52.40
2023-03-16T01:11:07.552Z,51.39
2023-03-16T01:13:34.899Z,51.06
2023-03-16T01:16:04.005Z,51.67
2023-03-16T01:18:34.216Z,52.19
2023-03-16T01:21:03.601Z,52.53
2023-03-16T01:23:32.783Z,52.03
2023-03-16T01:26:00.295Z,53.02
2023-03-16T01:28:29.571Z,51.56
2023-03-16T01:31:00.372Z,51.54
2023-03-16T01:33:28.325Z,52.15
2023-03-16T01:35:56.896Z,53.08
2023-03-16T01:38:25.246Z,53.69
2023-03-16T01:40:53.879Z,53.65
2023-03-16T01:43:22.591Z,53.26
2023-03-16T01:46:18.311Z,53.05
2023-03-16T01:48:58.392Z,53.46
2023-03-16T01:51:33.990Z,53.34
2023-03-16T01:54:08.411Z,52.08
2023-03-16T01:56:45.477Z,52.02
2023-03-16T01:59:14.754Z,52.28
2023-03-16T02:01:42.323Z,52.74
2023-03-16T02:04:17.142Z,52.64
2023-03-16T02:06:44.643Z,52.47
2023-03-16T02:09:12.470Z,52.94
2023-03-16T02:11:39.878Z,52.28
2023-03-16T02:14:09.529Z,52.20
2023-03-16T02:16:37.351Z,52.36
2023-03-16T02:19:07.057Z,53.86
2023-03-16T02:21:56.128Z,52.60
2023-03-16T02:24:24.067Z,53.34
2023-03-16T02:26:59.611Z,51.81
2023-03-16T02:29:49.199Z,51.98
2023-03-16T02:32:17.303Z,52.33
2023-03-16T02:34:44.891Z,51.64
2023-03-16T02:37:13.070Z,52.68
2023-03-16T02:39:44.009Z,52.46
2023-03-16T02:42:13.042Z,52.67
2023-03-16T02:44:43.686Z,53.52
2023-03-16T02:47:16.605Z,53.31
2023-03-16T02:49:45.159Z,53.63
2023-03-16T02:52:12.579Z,53.71
2023-03-16T02:54:40.055Z,53.24
2023-03-16T02:57:09.389Z,53.31
2023-03-16T02:59:36.875Z,54.83
2023-03-16T03:02:04.365Z,54.72
2023-03-16T03:04:33.102Z,54.82
2023-03-16T03:07:04.770Z,55.41
2023-03-16T03:09:33.240Z,54.66
2023-03-16T03:12:00.649Z,54.38
2023-03-16T03:14:28.595Z,54.23
2023-03-16T03:16:56.294Z,54.53
2023-03-16T03:19:23.645Z,55.38
2023-03-16T03:21:51.538Z,55.38
2023-03-16T03:24:19.142Z,55.06
2023-03-16T03:26:47.472Z,55.54
2023-03-16T03:29:16.010Z,55.19
2023-03-16T03:31:43.807Z,56.95
2023-03-16T03:34:11.761Z,56.31
2023-03-16T03:36:39.193Z,56.87
2023-03-16T03:39:07.194Z,56.53
2023-03-16T03:41:34.883Z,56.28
2023-03-16T03:44:02.440Z,55.88
2023-03-16T03:46:30.268Z,55.59
2023-03-16T03:49:03.614Z,56.62
2023-03-16T03:51:32.964Z,55.52
2023-03-16T03:54:00.752Z,56.36
2023-03-16T03:56:28.883Z,57.02
2023-03-16T03:58:56.796Z,57.24
2023-03-16T04:01:24.989Z,57.53
2023-03-16T04:03:52.661Z,57.58
2023-03-16T04:06:20.610Z,56.88
2023-03-16T04:08:47.982Z,58.08
2023-03-16T04:11:15.749Z,57.97
2023-03-16T04:13:43.540Z,58.84
2023-03-16T04:16:11.094Z,58.57
2023-03-16T04:18:39.065Z,57.78
2023-03-16T04:21:07.431Z,57.95
2023-03-16T04:23:34.860Z,58.58
2023-03-16T04:26:03.862Z,59.23
2023-03-16T04:28:32.671Z,59.63
2023-03-16T04:31:07.609Z,59.76
2023-03-16T04:33:36.053Z,59.48
2023-03-16T04:36:04.210Z,59.59
2023-03-16T04:38:35.342Z,60.62
2023-03-16T04:41:03.787Z,59.37
2023-03-16T04:43:34.468Z,59.49
2023-03-16T04:46:03.200Z,58.85
2023-03-16T04:48:32.643Z,59.68
2023-03-16T04:51:01.429Z,59.74
2023-03-16T04:53:31.910Z,59.87
2023-03-16T04:55:59.885Z,60.72
2023-03-16T04:58:27.284Z,60.04
2023-03-16T05:00:58.044Z,59.86
2023-03-16T05:03:25.992Z,61.16
2023-03-16T05:05:53.496Z,60.28
2023-03-16T05:08:21.794Z,60.69
2023-03-16T05:10:49.637Z,60.94
2023-03-16T05:13:17.139Z,58.96
2023-03-16T05:15:45.335Z,60.18
2023-03-16T05:18:13.144Z,60.03
2023-03-16T05:20:41.200Z,59.40
2023-03-16T05:23:09.284Z,59.42
2023-03-16T05:25:36.875Z,59.01
2023-03-16T05:28:05.480Z,59.49
2023-03-16T05:30:33.676Z,58.86
2023-03-16T05:33:01.706Z,58.78
2023-03-16T05:35:29.459Z,58.77
2023-03-16T05:37:58.430Z,57.64
2023-03-16T05:40:26.533Z,58.36
2023-03-16T05:42:55.450Z,58.33
2023-03-16T05:45:23.624Z,59.63
2023-03-16T05:47:51.846Z,60.55
2023-03-16T05:50:19.343Z,59.30
2023-03-16T05:52:48.291Z,59.88
2023-03-16T05:55:16.650Z,60.58
2023-03-16T05:57:44.492Z,59.36
2023-03-16T06:00:14.528Z,59.77
2023-03-16T06:02:44.071Z,59.93
2023-03-16T06:05:11.482Z,59.06
2023-03-16T06:07:41.572Z,58.25
2023-03-16T06:10:10.234Z,57.80
2023-03-16T06:12:38.306Z,57.93
2023-03-16T06:15:10.308Z,58.68
2023-03-16T06:17:38.519Z,56.24
2023-03-16T06:20:11.130Z,56.21
2023-03-16T06:22:40.198Z,56.46
2023-03-16T06:25:08.062Z,56.77
2023-03-16T06:27:38.518Z,55.75
2023-03-16T06:30:07.375Z,55.64
2023-03-16T06:32:36.061Z,55.71
2023-03-16T06:35:04.098Z,56.34
2023-03-16T06:37:32.400Z,55.25
2023-03-16T06:40:00.641Z,54.92
2023-03-16T06:42:28.947Z,55.33
2023-03-16T06:44:57.910Z,56.00
2023-03-16T06:47:26.030Z,54.85
2023-03-16T06:49:55.340Z,54.69
2023-03-16T06:52:24.726Z,55.44
2023-03-16T06:54:52.195Z,54.23
2023-03-16T06:57:19.865Z,53.42
2023-03-16T06:59:47.534Z,53.04
2023-03-16T07:02:15.302Z,51.51
2023-03-16T07:04:43.248Z,52.51
2023-03-16T07:07:11.764Z,52.62
2023-03-16T07:09:41.660Z,51.27
2023-03-16T07:12:09.820Z,51.66
2023-03-16T07:14:38.036Z,50.74
2023-03-16T07:17:05.530Z,50.31
2023-03-16T07:19:33.139Z,49.95
2023-03-16T07:22:02.779Z,50.86
2023-03-16T07:24:32.801Z,51.52
2023-03-16T07:27:00.196Z,51.85
2023-03-16T07:29:28.592Z,51.81
2023-03-16T07:31:56.343Z,51.85
2023-03-16T07:34:24.249Z,52.20
2023-03-16T07:36:52.987Z,51.44
2023-03-16T07:39:21.562Z,51.41
2023-03-16T07:41:51.349Z,51.21
2023-03-16T07:44:19.158Z,51.73
2023-03-16T07:46:47.151Z,52.11
2023-03-16T07:49:16.727Z,51.39
2023-03-16T07:51:44.929Z,51.71
2023-03-16T07:54:13.948Z,51.54
2023-03-16T07:56:48.990Z,51.09
2023-03-16T07:59:20.447Z,51.48
2023-03-16T08:01:48.966Z,50.49
2023-03-16T08:04:19.353Z,51.86
2023-03-16T08:06:47.932Z,51.75
2023-03-16T08:09:15.425Z,50.42
2023-03-16T08:11:43.741Z,50.69
2023-03-16T08:14:11.192Z,51.14
2023-03-16T08:16:39.876Z,50.22
2023-03-16T08:19:07.610Z,50.11
2023-03-16T08:21:45.771Z,49.65
2023-03-16T08:24:21.123Z,48.96
2023-03-16T08:26:48.517Z,49.73
2023-03-16T08:29:17.208Z,49.39
2023-03-16T08:31:45.220Z,49.55
2023-03-16T08:34:12.722Z,49.79
2023-03-16T08:36:43.810Z,49.15
2023-03-16T08:39:12.197Z,48.39
2023-03-16T08:41:40.965Z,48.17
2023-03-16T08:44:10.736Z,47.28
2023-03-16T08:46:39.318Z,46.97
2023-03-16T08:49:06.970Z,46.64
2023-03-16T08:51:34.417Z,47.95
2023-03-16T08:54:01.998Z,46.86
2023-03-16T08:56:30.501Z,46.96
2023-03-16T08:58:58.478Z,45.83
2023-03-16T09:01:26.817Z,45.82
2023-03-16T09:03:55.039Z,44.87
2023-03-16T09:06:22.538Z,45.78
2023-03-16T09:08:50.185Z,46.84
2023-03-16T09:11:18.824Z,46.53
2023-03-16T09:13:46.353Z,45.54
2023-03-16T09:16:15.274Z,44.99
2023-03-16T09:18:42.747Z,43.76
2023-03-16T09:21:10.461Z,42.17
2023-03-16T09:23:38.098Z,41.51
2023-03-16T09:26:07.657Z,40.85
2023-03-16T09:28:35.950Z,38.92
2023-03-16T09:31:03.662Z,40.14
2023-03-16T09:33:32.102Z,40.65
2023-03-16T09:35:59.604Z,39.96
2023-03-16T09:38:27.661Z,39.87
2023-03-16T09:41:29.533Z,38.31
2023-03-16T09:44:18.524Z,38.11
2023-03-16T09:46:46.393Z,37.19
2023-03-16T09:49:16.619Z,35.63
2023-03-16T09:52:09.049Z,36.16
2023-03-16T09:54:59.801Z,35.98
2023-03-16T09:57:29.781Z,34.68
2023-03-16T10:00:07.540Z,34.45
2023-03-16T10:02:56.009Z,35.35
2023-03-16T10:05:23.892Z,35.12
2023-03-16T10:08:14.010Z,35.54
2023-03-16T10:11:02.975Z,36.05
2023-03-16T10:13:55.041Z,35.39
2023-03-16T10:16:30.868Z,35.56
2023-03-16T10:19:02.429Z,34.55
2023-03-16T10:21:30.596Z,35.34
2023-03-16T10:23:58.864Z,35.20
2023-03-16T10:26:31.651Z,39.00
2023-03-16T10:29:01.162Z,37.92
2023-03-16T10:31:29.426Z,36.65
2023-03-16T10:34:02.705Z,35.90
2023-03-16T10:36:35.053Z,35.77
2023-03-16T10:39:10.792Z,36.08
2023-03-16T10:41:43.228Z,35.25
2023-03-16T10:44:17.002Z,35.27
2023-03-16T10:46:50.110Z,34.84
2023-03-16T10:49:27.428Z,36.47
2023-03-16T10:51:57.211Z,35.48
2023-03-16T10:54:33.601Z,35.36
2023-03-16T10:57:02.130Z,34.00
2023-03-16T10:59:34.529Z,33.06
2023-03-16T11:02:03.749Z,34.44
2023-03-16T11:04:33.016Z,32.98
2023-03-16T11:07:00.383Z,33.46
2023-03-16T11:09:34.187Z,33.34
2023-03-16T11:12:15.519Z,32.88
2023-03-16T11:14:44.464Z,32.37
2023-03-16T11:17:34.893Z,31.44
2023-03-16T11:20:14.879Z,31.08
2023-03-16T11:22:42.287Z,30.50
2023-03-16T11:25:14.315Z,31.97
2023-03-16T11:27:54.219Z,32.29
2023-03-16T11:30:35.281Z,31.21
2023-03-16T11:33:04.191Z,30.47
2023-03-16T11:35:58.406Z,31.11
2023-03-16T11:38:44.972Z,31.06
2023-03-16T11:41:25.822Z,29.09
2023-03-16T11:43:56.918Z,30.30
2023-03-16T11:46:28.589Z,28.98
2023-03-16T11:49:02.097Z,28.82
2023-03-16T11:51:33.404Z,28.87
2023-03-16T11:54:11.271Z,28.42
2023-03-16T11:56:58.204Z,27.20
2023-03-16T11:59:28.494Z,28.38
2023-03-16T12:02:05.435Z,28.24
2023-03-16T12:04:59.724Z,27.91
2023-03-16T12:07:42.958Z,27.85
2023-03-16T12:10:24.176Z,26.92
2023-03-16T12:12:57.131Z,27.08
2023-03-16T12:15:45.111Z,26.40
2023-03-16T12:18:16.144Z,26.14
2023-03-16T12:20:56.408Z,25.79
2023-03-16T12:23:43.248Z,26.83
2023-03-16T12:26:12.419Z,25.33
2023-03-16T12:28:41.042Z,25.55
2023-03-16T12:31:13.915Z,25.54
2023-03-16T12:33:53.439Z,25.40
2023-03-16T12:36:55.990Z,26.25
2023-03-16T12:39:40.649Z,25.79
2023-03-16T12:42:27.062Z,26.93
2023-03-16T12:44:57.427Z,25.75
2023-03-16T12:47:44.000Z,25.62
2023-03-16T12:50:13.619Z,25.26
2023-03-16T12:52:48.859Z,24.73
2023-03-16T12:55:23.578Z,25.38
2023-03-16T12:57:51.611Z,25.96
2023-03-16T13:00:19.754Z,25.90
2023-03-16T13:02:53.210Z,26.26
2023-03-16T13:05:34.646Z,26.16
2023-03-16T13:08:13.636Z,26.56
2023-03-16T13:10:41.333Z,26.29
2023-03-16T13:13:11.368Z,26.80
2023-03-16T13:15:39.803Z,26.23
2023-03-16T13:18:10.436Z,25.98
2023-03-16T13:20:57.928Z,24.29
2023-03-16T13:23:49.684Z,23.84
2023-03-16T13:26:19.900Z,23.79
2023-03-16T13:28:51.300Z,23.95
2023-03-16T13:31:25.746Z,24.81
2023-03-16T13:33:55.830Z,25.19
2023-03-16T13:36:25.361Z,25.35
2023-03-16T13:39:14.337Z,25.68
2023-03-16T13:41:43.367Z,25.82
2023-03-16T13:44:13.989Z,25.27
2023-03-16T13:46:41.363Z,25.38
2023-03-16T13:49:11.973Z,25.49
2023-03-16T13:51:39.842Z,25.01
2023-03-16T13:54:21.717Z,25.42
2023-03-16T13:56:50.756Z,25.69
2023-03-16T13:59:18.469Z,26.28
2023-03-16T14:01:46.196Z,26.31
2023-03-16T14:04:15.892Z,26.10
2023-03-16T14:06:51.998Z,26.31
2023-03-16T14:09:21.762Z,24.96
2023-03-16T14:11:49.203Z,24.27
2023-03-16T14:14:17.963Z,24.26
2023-03-16T14:16:45.741Z,24.83
2023-03-16T14:19:17.397Z,24.77
2023-03-16T14:21:45.868Z,24.57
2023-03-16T14:24:30.855Z,24.87
2023-03-16T14:26:58.396Z,24.87
2023-03-16T14:29:28.431Z,25.27
2023-03-16T14:31:56.049Z,25.07
2023-03-16T14:34:26.063Z,25.16
2023-03-16T14:36:53.823Z,25.10
2023-03-16T14:39:21.507Z,25.72
2023-03-16T14:41:49.870Z,26.06
2023-03-16T14:44:25.150Z,25.58
2023-03-16T14:46:53.948Z,25.57
2023-03-16T14:49:25.341Z,25.72
2023-03-16T14:51:53.833Z,25.17
2023-03-16T14:54:22.418Z,24.95
2023-03-16T14:56:51.690Z,25.73
2023-03-16T14:59:19.263Z,26.46
2023-03-16T15:01:46.909Z,26.32
2023-03-16T15:04:15.741Z,26.37
2023-03-16T15:06:43.079Z,25.43
2023-03-16T15:09:37.965Z,25.22
2023-03-16T15:12:16.107Z,25.05
2023-03-16T15:15:02.104Z,25.59
2023-03-16T15:17:29.730Z,24.43
2023-03-16T15:19:57.106Z,24.91
2023-03-16T15:22:29.087Z,26.03
2023-03-16T15:24:57.418Z,26.18
2023-03-16T15:27:27.828Z,26.33
2023-03-16T15:29:55.152Z,26.10
2023-03-16T15:32:22.806Z,25.44
2023-03-16T15:34:50.160Z,25.96
2023-03-16T15:37:17.656Z,25.58
2023-03-16T15:39:48.449Z,25.32
2023-03-16T15:42:17.057Z,25.97
2023-03-16T15:44:45.497Z,26.29
2023-03-16T15:47:13.016Z,26.93
2023-03-16T15:49:47.547Z,26.24
2023-03-16T15:52:36.713Z,26.53
2023-03-16T15:55:07.913Z,26.20
2023-03-16T15:57:35.641Z,26.10
2023-03-16T16:00:03.340Z,25.56
2023-03-16T16:02:32.326Z,26.18
2023-03-16T16:04:59.936Z,26.63
2023-03-16T16:07:27.462Z,25.78
2023-03-16T16:09:54.912Z,25.80
2023-03-16T16:12:26.994Z,25.61
2023-03-16T16:14:56.214Z,25.59
2023-03-16T16:17:36.582Z,25.27
2023-03-16T16:20:23.462Z,25.77
2023-03-16T16:22:52.032Z,25.75
2023-03-16T16:25:21.308Z,26.70
2023-03-16T16:27:49.053Z,26.22
2023-03-16T16:30:26.505Z,26.40
2023-03-16T16:32:54.129Z,25.76
2023-03-16T16:35:25.126Z,26.97
2023-03-16T16:37:52.634Z,27.27
2023-03-16T16:40:24.178Z,27.30
2023-03-16T16:42:52.927Z,27.67
2023-03-16T16:45:21.845Z,27.88
2023-03-16T16:47:52.197Z,27.64
2023-03-16T16:50:25.545Z,27.80
2023-03-16T16:52:53.441Z,28.61
2023-03-16T16:55:22.174Z,28.18
2023-03-16T16:57:49.965Z,28.00
2023-03-16T17:00:23.774Z,27.61
2023-03-16T17:02:53.543Z,28.83
2023-03-16T17:05:25.762Z,27.69
2023-03-16T17:07:53.519Z,28.36
2023-03-16T17:10:27.419Z,27.23
2023-03-16T17:12:56.025Z,28.81
2023-03-16T17:15:30.381Z,28.07
2023-03-16T17:18:03.036Z,28.12
2023-03-16T17:20:31.163Z,29.26
2023-03-16T17:22:58.828Z,29.52
2023-03-16T17:25:26.213Z,29.82
2023-03-16T17:27:54.330Z,30.38
2023-03-16T17:30:28.722Z,31.22
2023-03-16T17:32:59.428Z,31.72
2023-03-16T17:35:27.191Z,32.19
2023-03-16T17:37:54.649Z,32.18
2023-03-16T17:40:25.186Z,32.67
2023-03-16T17:42:53.181Z,33.07
2023-03-16T17:45:22.571Z,33.16
2023-03-16T17:47:50.249Z,33.17
2023-03-16T17:50:24.552Z,33.11
2023-03-16T17:52:52.781Z,33.75
2023-03-16T17:55:22.712Z,32.40
2023-03-16T17:57:51.913Z,33.97
2023-03-16T18:00:23.849Z,33.83
2023-03-16T18:03:19.300Z,33.18
2023-03-16T18:05:46.678Z,33.33
2023-03-16T18:08:27.134Z,33.83
2023-03-16T18:11:05.664Z,33.88
2023-03-16T18:13:35.095Z,34.62
2023-03-16T18:16:02.928Z,34.53
2023-03-16T18:18:31.652Z,34.88
2023-03-16T18:21:00.576Z,35.40
2023-03-16T18:23:29.877Z,34.41
2023-03-16T18:26:02.123Z,35.11
2023-03-16T18:28:31.263Z,34.57
2023-03-16T18:30:59.254Z,35.66
2023-03-16T18:33:36.478Z,36.07
2023-03-16T18:36:06.706Z,34.53
2023-03-16T18:38:39.318Z,36.17
2023-03-16T18:41:28.844Z,36.12
2023-03-16T18:43:57.825Z,36.57
2023-03-16T18:46:26.572Z,36.60
2023-03-16T18:48:55.913Z,36.59
2023-03-16T18:51:23.706Z,35.56
2023-03-16T18:53:51.439Z,36.37
2023-03-16T18:56:26.907Z,37.04
2023-03-16T18:58:55.356Z,36.81
2023-03-16T19:01:30.084Z,36.11
2023-03-16T19:03:58.492Z,36.02
2023-03-16T19:06:29.614Z,35.44
2023-03-16T19:09:06.053Z,35.61
2023-03-16T19:11:33.962Z,36.82
2023-03-16T19:14:01.432Z,37.34
2023-03-16T19:16:28.879Z,36.84
2023-03-16T19:18:56.543Z,37.04
2023-03-16T19:21:24.909Z,36.31
2023-03-16T19:23:55.846Z,36.40
2023-03-16T19:26:23.493Z,36.24
2023-03-16T19:28:50.859Z,38.16
2023-03-16T19:31:20.376Z,37.77
2023-03-16T19:33:48.320Z,37.26
2023-03-16T19:36:17.715Z,37.45
2023-03-16T19:38:46.470Z,37.91
2023-03-16T19:41:34.400Z,37.76
2023-03-16T19:44:08.479Z,37.23
2023-03-16T19:46:36.211Z,37.89
2023-03-16T19:49:03.593Z,37.55
2023-03-16T19:51:32.262Z,37.81
2023-03-16T19:54:01.370Z,37.99
2023-03-16T19:56:28.930Z,37.12
2023-03-16T19:58:56.325Z,36.57
2023-03-16T20:01:30.336Z,37.10
2023-03-16T20:03:59.733Z,36.49
2023-03-16T20:06:27.230Z,36.74
2023-03-16T20:08:54.715Z,36.29
2023-03-16T20:11:27.641Z,36.79
2023-03-16T20:13:55.011Z,36.25
2023-03-16T20:16:30.006Z,36.19
2023-03-16T20:18:58.883Z,37.01
2023-03-16T20:21:26.697Z,37.47
2023-03-16T20:23:54.163Z,36.59
2023-03-16T20:26:31.714Z,37.00
2023-03-16T20:28:59.963Z,37.52
2023-03-16T20:31:31.275Z,37.01
2023-03-16T20:33:58.992Z,37.73
2023-03-16T20:36:26.630Z,37.24
2023-03-16T20:38:53.977Z,38.45
2023-03-16T20:41:26.685Z,38.50
2023-03-16T20:43:54.866Z,37.02
2023-03-16T20:46:28.727Z,37.98
2023-03-16T20:48:56.183Z,37.41
2023-03-16T20:51:24.653Z,38.39
2023-03-16T20:53:52.506Z,38.38
2023-03-16T20:56:21.305Z,39.74
2023-03-16T20:58:49.915Z,37.83
2023-03-16T21:01:18.793Z,38.04
2023-03-16T21:03:49.009Z,39.08
2023-03-16T21:06:25.025Z,39.01
2023-03-16T21:08:53.032Z,38.65
2023-03-16T21:11:48.073Z,38.18
2023-03-16T21:14:17.664Z,39.18
2023-03-16T21:16:45.400Z,39.64
2023-03-16T21:19:14.473Z,39.14
2023-03-16T21:21:41.989Z,39.62
2023-03-16T21:24:09.639Z,40.06
2023-03-16T21:26:37.413Z,39.73
2023-03-16T21:29:08.206Z,39.98
2023-03-16T21:31:36.170Z,40.73
2023-03-16T21:34:05.601Z,40.20
2023-03-16T21:36:32.993Z,40.11
2023-03-16T21:39:00.644Z,39.90
2023-03-16T21:41:28.282Z,39.52
2023-03-16T21:43:55.945Z,40.20
2023-03-16T21:46:23.856Z,40.59
2023-03-16T21:48:53.144Z,38.95
2023-03-16T21:51:26.353Z,39.98
2023-03-16T21:53:54.011Z,40.25
2023-03-16T21:56:22.882Z,39.52
2023-03-16T21:58:50.282Z,40.56
2023-03-16T22:01:20.530Z,40.00
2023-03-16T22:03:51.309Z,41.05
2023-03-16T22:06:19.786Z,41.39
2023-03-16T22:08:47.154Z,41.91
2023-03-16T22:11:16.742Z,41.54
2023-03-16T22:13:44.087Z,41.53
2023-03-16T22:16:16.322Z,42.10
2023-03-16T22:18:45.049Z,42.36
2023-03-16T22:21:32.994Z,42.74
2023-03-16T22:24:01.164Z,42.84
2023-03-16T22:26:29.195Z,43.33
2023-03-16T22:28:56.618Z,43.35
2023-03-16T22:31:30.139Z,43.13
2023-03-16T22:33:57.557Z,42.22
2023-03-16T22:36:25.152Z,43.15
2023-03-16T22:39:00.232Z,43.26
2023-03-16T22:41:28.586Z,43.71
2023-03-16T22:43:55.948Z,43.63
2023-03-16T22:46:24.905Z,43.56
2023-03-16T22:48:53.179Z,43.49
2023-03-16T22:51:29.033Z,43.70
2023-03-16T22:53:59.843Z,43.93
2023-03-16T22:56:27.241Z,43.23
2023-03-16T22:58:56.230Z,43.62
2023-03-16T23:01:36.472Z,44.00
2023-03-16T23:04:03.863Z,43.73
2023-03-16T23:06:35.108Z,44.48
2023-03-16T23:09:02.479Z,44.14
2023-03-16T23:11:33.615Z,44.13
2023-03-16T23:14:01.306Z,43.94
2023-03-16T23:16:35.812Z,44.29
2023-03-16T23:19:18.726Z,44.49
2023-03-16T23:21:46.462Z,44.77
2023-03-16T23:24:14.093Z,45.33
2023-03-16T23:26:41.460Z,45.11
2023-03-16T23:29:09.810Z,44.70
2023-03-16T23:31:37.636Z,44.64
2023-03-16T23:34:12.338Z,44.29
2023-03-16T23:36:40.007Z,43.77
2023-03-16T23:39:07.573Z,43.28
2023-03-16T23:41:34.966Z,43.69
2023-03-16T23:44:03.664Z,43.95
2023-03-16T23:46:31.070Z,44.04
2023-03-16T23:48:58.628Z,44.00
2023-03-16T23:51:28.154Z,44.63
2023-03-16T23:53:55.759Z,44.68
2023-03-16T23:56:23.318Z,44.89
2023-03-16T23:58:51.114Z,44.73
